createdAt,value
2018-04-25T00:01:25.601Z,21.70
2018-04-25T00:03:51.345Z,27.30
2018-04-25T00:06:17.068Z,22.20
2018-04-25T00:08:42.804Z,18.80
2018-04-25T00:11:08.526Z,28.47
2018-04-25T00:13:34.267Z,25.77
2018-04-25T00:16:00.020Z,25.60
2018-04-25T00:18:25.749Z,26.67
2018-04-25T00:20:51.473Z,22.50
2018-04-25T00:23:17.208Z,26.00
2018-04-25T00:25:42.953Z,21.57
2018-04-25T00:28:08.698Z,22.77
2018-04-25T00:30:34.429Z,23.37
2018-04-25T00:33:00.157Z,21.80
2018-04-25T00:35:25.872Z,28.77
2018-04-25T00:37:51.609Z,19.67
2018-04-25T00:40:17.339Z,27.90
2018-04-25T00:42:43.076Z,26.77
2018-04-25T00:45:08.809Z,24.70
2018-04-25T00:47:34.568Z,19.77
2018-04-25T00:50:00.300Z,24.87
2018-04-25T00:52:26.034Z,25.93
2018-04-25T00:54:51.772Z,24.13
2018-04-25T00:57:17.508Z,25.23
2018-04-25T00:59:43.245Z,17.07
2018-04-25T01:02:08.973Z,24.90
2018-04-25T01:04:34.729Z,16.60
2018-04-25T01:07:00.466Z,22.47
2018-04-25T01:09:26.202Z,25.57
2018-04-25T01:11:52.264Z,21.43
2018-04-25T01:14:17.881Z,20.47
2018-04-25T01:16:43.612Z,19.90
2018-04-25T01:19:09.337Z,22.30
2018-04-25T01:21:35.048Z,18.33
2018-04-25T01:24:00.784Z,16.93
2018-04-25T01:26:26.496Z,20.30
2018-04-25T01:28:52.220Z,24.17
2018-04-25T01:31:17.951Z,15.07
2018-04-25T01:33:43.674Z,15.77
2018-04-25T01:36:12.168Z,26.17
2018-04-25T01:38:38.745Z,25.55
2018-04-25T01:41:05.407Z,20.33
2018-04-25T01:43:31.155Z,17.83
2018-04-25T01:46:06.950Z,19.90
2018-04-25T01:48:32.687Z,18.23
2018-04-25T01:50:58.300Z,24.43
2018-04-25T01:53:36.558Z,25.93
2018-04-25T01:56:14.800Z,22.50
2018-04-25T01:58:53.012Z,22.67
2018-04-25T02:01:18.642Z,27.30
2018-04-25T02:03:57.603Z,30.67
2018-04-25T02:06:23.332Z,23.63
2018-04-25T02:08:49.060Z,28.97
2018-04-25T02:11:14.784Z,31.50
2018-04-25T02:13:40.512Z,33.10
2018-04-25T02:16:06.232Z,49.37
2018-04-25T02:18:33.898Z,41.33
2018-04-25T02:20:59.658Z,53.93
2018-04-25T02:23:25.413Z,41.80
2018-04-25T02:25:51.153Z,43.30
2018-04-25T02:28:16.885Z,48.03
2018-04-25T02:30:42.622Z,96.20
2018-04-25T02:33:08.361Z,58.83
2018-04-25T02:35:34.096Z,59.63
2018-04-25T02:37:59.833Z,72.67
2018-04-25T02:40:25.577Z,58.80
2018-04-25T02:42:51.305Z,63.13
2018-04-25T02:45:17.044Z,63.90
2018-04-25T02:47:42.775Z,110.53
2018-04-25T02:50:08.529Z,65.57
2018-04-25T02:52:34.273Z,81.93
2018-04-25T02:55:00.025Z,86.77
2018-04-25T02:57:25.760Z,77.33
2018-04-25T02:59:51.509Z,81.37
2018-04-25T03:02:17.256Z,84.00
2018-04-25T03:04:43.005Z,85.80
2018-04-25T03:07:08.746Z,72.93
2018-04-25T03:09:34.476Z,73.43
2018-04-25T03:12:00.197Z,73.77
2018-04-25T03:14:25.933Z,84.97
2018-04-25T03:16:51.678Z,101.33
2018-04-25T03:19:17.425Z,91.80
2018-04-25T03:21:43.153Z,90.63
2018-04-25T03:24:08.885Z,95.37
2018-04-25T03:26:34.624Z,115.93
2018-04-25T03:29:00.379Z,95.80
2018-04-25T03:31:26.119Z,142.20
2018-04-25T03:33:51.829Z,131.43
2018-04-25T03:36:17.585Z,126.47
2018-04-25T03:38:43.328Z,97.40
2018-04-25T03:41:09.160Z,115.13
2018-04-25T03:43:34.820Z,99.13
2018-04-25T03:46:00.568Z,98.30
2018-04-25T03:48:26.300Z,111.27
2018-04-25T03:50:52.045Z,100.70
2018-04-25T03:53:17.811Z,102.63
2018-04-25T03:55:43.560Z,155.57
2018-04-25T03:58:09.301Z,94.13
2018-04-25T04:00:35.043Z,96.80
2018-04-25T04:03:00.786Z,120.33
2018-04-25T04:05:26.541Z,95.80
2018-04-25T04:07:52.277Z,136.90
2018-04-25T04:10:18.021Z,89.47
2018-04-25T04:12:43.761Z,83.03
2018-04-25T04:15:09.509Z,107.53
2018-04-25T04:17:35.251Z,84.33
2018-04-25T04:20:01.014Z,93.50
2018-04-25T04:22:26.752Z,90.10
2018-04-25T04:24:52.565Z,125.50
2018-04-25T04:27:18.251Z,94.47
2018-04-25T04:29:44.001Z,121.17
2018-04-25T04:32:09.732Z,76.77
2018-04-25T04:34:35.492Z,81.30
2018-04-25T04:37:01.248Z,92.87
2018-04-25T04:39:26.993Z,132.40
2018-04-25T04:41:52.740Z,81.37
2018-04-25T04:44:18.470Z,84.03
2018-04-25T04:46:44.225Z,75.40
2018-04-25T04:49:09.973Z,83.80
2018-04-25T04:51:35.738Z,88.50
2018-04-25T04:54:01.480Z,78.10
2018-04-25T04:56:27.228Z,67.67
2018-04-25T04:58:52.952Z,58.70
2018-04-25T05:01:18.696Z,70.20
2018-04-25T05:03:44.438Z,89.30
2018-04-25T05:06:10.180Z,61.53
2018-04-25T05:08:35.941Z,50.00
2018-04-25T05:11:01.688Z,60.47
2018-04-25T05:13:27.426Z,62.90
2018-04-25T05:15:53.197Z,68.00
2018-04-25T05:18:18.954Z,75.80
2018-04-25T05:20:44.691Z,56.10
2018-04-25T05:23:10.429Z,54.77
2018-04-25T05:25:36.172Z,54.10
2018-04-25T05:28:01.916Z,53.63
2018-04-25T05:30:27.673Z,48.40
2018-04-25T05:32:53.413Z,59.67
2018-04-25T05:35:19.164Z,60.20
2018-04-25T05:37:44.892Z,61.73
2018-04-25T05:40:10.637Z,46.77
2018-04-25T05:42:36.370Z,76.70
2018-04-25T05:45:02.116Z,43.23
2018-04-25T05:47:27.868Z,42.33
2018-04-25T05:49:53.600Z,91.33
2018-04-25T05:52:19.333Z,50.83
2018-04-25T05:54:45.090Z,45.57
2018-04-25T05:57:10.843Z,45.93
2018-04-25T05:59:36.588Z,36.03
2018-04-25T06:02:02.341Z,47.67
2018-04-25T06:04:28.075Z,27.30
2018-04-25T06:06:53.820Z,27.47
2018-04-25T06:09:19.564Z,30.80
2018-04-25T06:11:45.332Z,29.80
2018-04-25T06:14:11.068Z,28.27
2018-04-25T06:16:36.821Z,28.07
2018-04-25T06:19:02.568Z,27.50
2018-04-25T06:21:28.329Z,24.77
2018-04-25T06:23:54.074Z,22.73
2018-04-25T06:26:19.828Z,23.43
2018-04-25T06:28:45.567Z,22.80
2018-04-25T06:31:11.344Z,23.40
2018-04-25T06:33:37.073Z,26.77
2018-04-25T06:36:02.822Z,23.67
2018-04-25T06:38:28.566Z,21.87
2018-04-25T06:40:54.321Z,17.47
2018-04-25T06:43:20.048Z,17.80
2018-04-25T06:45:45.784Z,18.20
2018-04-25T06:48:11.527Z,20.87
2018-04-25T06:50:37.363Z,16.43
2018-04-25T06:53:03.053Z,17.27
2018-04-25T06:55:28.794Z,18.47
2018-04-25T06:57:54.552Z,25.53
2018-04-25T07:00:20.272Z,19.23
2018-04-25T07:02:46.021Z,22.37
2018-04-25T07:05:11.759Z,20.43
2018-04-25T07:07:37.508Z,18.13
2018-04-25T07:10:03.244Z,21.87
2018-04-25T07:12:28.968Z,14.90
2018-04-25T07:14:54.702Z,14.80
2018-04-25T07:17:20.452Z,13.17
2018-04-25T07:19:46.202Z,12.63
2018-04-25T07:22:11.956Z,14.97
2018-04-25T07:24:37.697Z,12.53
2018-04-25T07:27:03.432Z,11.80
2018-04-25T07:29:29.215Z,13.87
2018-04-25T07:31:54.928Z,10.47
2018-04-25T07:34:20.660Z,10.83
2018-04-25T07:36:46.435Z,10.37
2018-04-25T07:39:12.186Z,10.30
2018-04-25T07:41:37.943Z,8.80
2018-04-25T07:44:03.669Z,8.77
2018-04-25T07:46:29.400Z,7.87
2018-04-25T07:48:55.130Z,8.30
2018-04-25T07:51:20.864Z,8.43
2018-04-25T07:53:46.592Z,8.00
2018-04-25T07:56:12.328Z,9.60
2018-04-25T07:58:38.052Z,7.70
2018-04-25T08:01:03.787Z,9.20
2018-04-25T08:03:29.552Z,7.63
2018-04-25T08:05:55.306Z,8.17
2018-04-25T08:08:21.037Z,6.27
2018-04-25T08:10:46.761Z,6.40
2018-04-25T08:13:24.880Z,7.60
2018-04-25T08:16:03.080Z,8.57
2018-04-25T08:18:41.265Z,6.57
2018-04-25T08:21:19.425Z,9.47
2018-04-25T08:23:45.206Z,6.43
2018-04-25T08:26:10.912Z,6.27
2018-04-25T08:28:36.659Z,6.77
2018-04-25T08:31:02.403Z,5.63
2018-04-25T08:33:28.151Z,9.33
2018-04-25T08:35:53.868Z,9.13
2018-04-25T08:38:19.608Z,8.50
2018-04-25T08:40:45.352Z,15.23
2018-04-25T08:43:11.087Z,14.03
2018-04-25T08:45:36.817Z,15.87
2018-04-25T08:48:02.556Z,17.83
2018-04-25T08:50:28.292Z,18.67
2018-04-25T08:52:54.032Z,12.77
2018-04-25T08:55:19.777Z,17.97
2018-04-25T08:57:45.525Z,16.30
2018-04-25T09:00:11.264Z,13.23
2018-04-25T09:02:36.992Z,9.20
2018-04-25T09:05:02.744Z,14.60
2018-04-25T09:07:28.512Z,9.97
2018-04-25T09:09:54.244Z,11.33
2018-04-25T09:12:19.997Z,8.57
2018-04-25T09:14:45.750Z,10.00
2018-04-25T09:17:11.496Z,9.33
2018-04-25T09:19:37.224Z,8.57
2018-04-25T09:22:02.965Z,8.17
2018-04-25T09:24:28.742Z,11.57
2018-04-25T09:26:54.476Z,7.23
2018-04-25T09:29:20.229Z,8.20
2018-04-25T09:31:45.981Z,9.83
2018-04-25T09:34:11.720Z,10.83
2018-04-25T09:36:37.456Z,9.40
2018-04-25T09:39:03.227Z,7.23
2018-04-25T09:41:28.961Z,9.23
2018-04-25T09:43:54.715Z,6.87
2018-04-25T09:46:20.460Z,7.57
2018-04-25T09:48:46.217Z,7.53
2018-04-25T09:51:11.960Z,10.97
2018-04-25T09:53:37.710Z,11.00
2018-04-25T09:56:03.459Z,9.03
2018-04-25T09:58:29.208Z,6.53
2018-04-25T10:00:56.891Z,4.67
2018-04-25T10:03:22.671Z,5.00
2018-04-25T10:05:48.448Z,4.47
2018-04-25T10:08:14.192Z,4.70
2018-04-25T10:10:39.937Z,5.43
2018-04-25T10:13:05.680Z,6.33
2018-04-25T10:15:31.403Z,6.23
2018-04-25T10:17:57.157Z,7.20
2018-04-25T10:20:22.873Z,4.63
2018-04-25T10:22:48.646Z,4.70
2018-04-25T10:25:14.381Z,5.37
2018-04-25T10:27:40.111Z,4.77
2018-04-25T10:30:05.861Z,2.73
2018-04-25T10:32:31.588Z,2.87
2018-04-25T10:34:57.334Z,1.30
2018-04-25T10:37:23.064Z,2.90
2018-04-25T10:39:48.849Z,2.03
2018-04-25T10:42:14.594Z,1.77
2018-04-25T10:44:40.327Z,1.00
2018-04-25T10:47:06.080Z,1.20
2018-04-25T10:49:31.824Z,1.00
2018-04-25T10:51:57.555Z,1.00
2018-04-25T10:54:23.312Z,0.90
2018-04-25T10:56:49.053Z,1.10
2018-04-25T10:59:14.805Z,0.90
2018-04-25T11:01:40.544Z,1.37
2018-04-25T11:04:06.287Z,1.57
2018-04-25T11:06:32.031Z,1.50
2018-04-25T11:08:57.768Z,5.00
2018-04-25T11:11:23.509Z,1.60
2018-04-25T11:13:49.246Z,1.20
2018-04-25T11:16:14.984Z,1.47
2018-04-25T11:18:40.733Z,2.00
2018-04-25T11:21:06.460Z,1.73
2018-04-25T11:23:32.204Z,2.23
2018-04-25T11:25:57.937Z,1.20
2018-04-25T11:28:23.686Z,1.00
2018-04-25T11:30:49.417Z,1.23
2018-04-25T11:33:15.171Z,1.30
2018-04-25T11:35:40.910Z,1.77
2018-04-25T11:38:06.656Z,1.43
2018-04-25T11:40:32.392Z,1.50
2018-04-25T11:42:58.136Z,1.20
2018-04-25T11:45:23.895Z,1.00
2018-04-25T11:47:56.729Z,1.20
2018-04-25T11:50:22.485Z,1.20
2018-04-25T11:52:48.224Z,1.23
2018-04-25T11:55:13.992Z,1.00
2018-04-25T11:57:39.728Z,1.40
2018-04-25T12:00:05.468Z,4.00
2018-04-25T12:02:31.198Z,1.40
2018-04-25T12:04:56.969Z,1.23
2018-04-25T12:07:22.684Z,1.47
2018-04-25T12:09:48.420Z,1.43
2018-04-25T12:12:14.166Z,1.30
2018-04-25T12:14:39.908Z,1.60
2018-04-25T12:17:05.655Z,2.20
2018-04-25T12:19:31.433Z,1.23
2018-04-25T12:21:57.168Z,1.10
2018-04-25T12:24:22.977Z,1.20
2018-04-25T12:26:48.653Z,1.20
2018-04-25T12:29:14.394Z,1.27
2018-04-25T12:31:40.127Z,2.70
2018-04-25T12:34:05.863Z,1.30
2018-04-25T12:36:31.592Z,1.13
2018-04-25T12:38:57.327Z,1.50
2018-04-25T12:41:23.052Z,1.30
2018-04-25T12:43:48.771Z,1.60
2018-04-25T12:46:14.504Z,1.67
2018-04-25T12:48:40.236Z,2.53
2018-04-25T12:51:05.972Z,2.87
2018-04-25T12:53:31.708Z,3.47
2018-04-25T12:55:57.461Z,1.93
2018-04-25T12:58:23.202Z,2.00
2018-04-25T13:00:48.964Z,2.73
2018-04-25T13:03:14.707Z,2.77
2018-04-25T13:05:40.467Z,1.77
2018-04-25T13:08:06.212Z,1.40
2018-04-25T13:10:31.949Z,1.60
2018-04-25T13:12:57.695Z,3.23
2018-04-25T13:15:23.432Z,2.00
2018-04-25T13:17:49.157Z,3.10
2018-04-25T13:20:14.895Z,2.20
2018-04-25T13:22:40.632Z,1.67
2018-04-25T13:25:06.385Z,4.13
2018-04-25T13:27:32.271Z,2.83
2018-04-25T13:29:58.143Z,2.63
2018-04-25T13:32:23.932Z,2.33
2018-04-25T13:34:49.683Z,4.37
2018-04-25T13:37:15.425Z,2.07
2018-04-25T13:39:41.176Z,2.50
2018-04-25T13:42:06.912Z,3.10
2018-04-25T13:44:32.701Z,3.60
2018-04-25T13:46:58.453Z,2.50
2018-04-25T13:49:24.374Z,4.90
2018-04-25T13:51:51.388Z,3.83
2018-04-25T13:54:18.696Z,6.90
2018-04-25T13:56:44.440Z,2.87
2018-04-25T13:59:10.184Z,4.73
2018-04-25T14:01:35.932Z,3.50
2018-04-25T14:04:01.675Z,3.27
2018-04-25T14:06:27.425Z,6.30
2018-04-25T14:08:53.168Z,5.13
2018-04-25T14:11:18.935Z,3.33
2018-04-25T14:13:44.720Z,6.07
2018-04-25T14:16:10.480Z,4.10
2018-04-25T14:18:36.210Z,5.03
2018-04-25T14:21:01.959Z,3.10
2018-04-25T14:23:27.708Z,7.00
2018-04-25T14:25:53.449Z,2.63
2018-04-25T14:28:19.196Z,3.70
2018-04-25T14:30:44.952Z,3.47
2018-04-25T14:33:10.699Z,5.60
2018-04-25T14:35:36.468Z,3.70
2018-04-25T14:38:02.212Z,5.63
2018-04-25T14:40:27.978Z,4.50
2018-04-25T14:42:53.717Z,5.70
2018-04-25T14:45:19.444Z,4.67
2018-04-25T14:47:45.180Z,3.20
2018-04-25T14:50:10.912Z,3.67
2018-04-25T14:52:36.647Z,4.50
2018-04-25T14:55:02.414Z,5.40
2018-04-25T14:57:28.162Z,2.40
2018-04-25T14:59:53.909Z,3.80
2018-04-25T15:02:19.654Z,4.27
2018-04-25T15:04:45.390Z,4.60
2018-04-25T15:07:11.119Z,5.07
2018-04-25T15:09:36.864Z,4.60
2018-04-25T15:12:02.608Z,5.23
2018-04-25T15:14:28.345Z,7.00
2018-04-25T15:16:54.093Z,11.23
2018-04-25T15:19:19.859Z,6.10
2018-04-25T15:21:45.625Z,5.17
2018-04-25T15:24:11.352Z,5.43
2018-04-25T15:26:37.216Z,5.47
2018-04-25T15:29:02.967Z,3.60
2018-04-25T15:31:28.704Z,4.97
2018-04-25T15:33:54.441Z,4.87
2018-04-25T15:36:20.189Z,7.17
2018-04-25T15:38:45.943Z,5.97
2018-04-25T15:41:11.688Z,5.43
2018-04-25T15:43:37.427Z,5.97
2018-04-25T15:46:03.222Z,5.00
2018-04-25T15:48:28.986Z,3.17
2018-04-25T15:50:54.743Z,6.90
2018-04-25T15:53:20.514Z,4.87
2018-04-25T15:55:46.261Z,5.43
2018-04-25T15:58:11.987Z,6.93
2018-04-25T16:00:37.775Z,8.07
2018-04-25T16:03:03.514Z,7.67
2018-04-25T16:05:29.251Z,3.17
2018-04-25T16:07:54.987Z,5.23
2018-04-25T16:10:20.739Z,4.97
2018-04-25T16:12:46.481Z,4.57
2018-04-25T16:15:12.235Z,4.57
2018-04-25T16:17:37.990Z,5.83
2018-04-25T16:20:03.721Z,4.23
2018-04-25T16:22:29.461Z,5.50
2018-04-25T16:24:55.220Z,4.10
2018-04-25T16:27:20.956Z,5.20
2018-04-25T16:29:46.693Z,6.60
2018-04-25T16:32:12.503Z,3.93
2018-04-25T16:34:38.687Z,5.27
2018-04-25T16:37:04.931Z,3.00
2018-04-25T16:39:30.691Z,3.63
2018-04-25T16:41:56.466Z,6.13
2018-04-25T16:44:22.195Z,4.07
2018-04-25T16:46:48.073Z,5.07
2018-04-25T16:49:13.804Z,3.53
2018-04-25T16:51:39.547Z,4.77
2018-04-25T16:54:05.292Z,4.73
2018-04-25T16:56:31.053Z,4.90
2018-04-25T16:58:56.780Z,2.27
2018-04-25T17:01:22.524Z,3.33
2018-04-25T17:03:48.264Z,2.20
2018-04-25T17:06:14.025Z,2.43
2018-04-25T17:08:39.776Z,2.97
2018-04-25T17:11:05.529Z,3.00
2018-04-25T17:13:31.260Z,4.30
2018-04-25T17:15:57.026Z,4.03
2018-04-25T17:18:22.780Z,4.57
2018-04-25T17:20:48.571Z,4.53
2018-04-25T17:23:15.275Z,2.20
2018-04-25T17:25:41.024Z,3.50
2018-04-25T17:28:06.756Z,3.17
2018-04-25T17:30:32.493Z,2.77
2018-04-25T17:32:58.240Z,4.83
2018-04-25T17:35:23.974Z,1.87
2018-04-25T17:37:49.720Z,3.23
2018-04-25T17:40:15.452Z,3.43
2018-04-25T17:42:41.257Z,2.63
2018-04-25T17:45:06.956Z,3.57
2018-04-25T17:47:32.700Z,3.90
2018-04-25T17:49:58.448Z,3.23
2018-04-25T17:52:24.210Z,4.07
2018-04-25T17:54:49.944Z,6.23
2018-04-25T17:57:15.714Z,3.43
2018-04-25T17:59:41.448Z,3.33
2018-04-25T18:02:07.195Z,4.07
2018-04-25T18:04:32.924Z,2.93
2018-04-25T18:06:58.671Z,3.87
2018-04-25T18:09:24.409Z,2.87
2018-04-25T18:11:50.175Z,4.03
2018-04-25T18:14:15.929Z,6.20
2018-04-25T18:16:41.672Z,3.07
2018-04-25T18:19:07.427Z,3.17
2018-04-25T18:21:33.156Z,4.20
2018-04-25T18:23:58.913Z,4.80
2018-04-25T18:26:24.660Z,2.10
2018-04-25T18:28:51.485Z,4.23
2018-04-25T18:31:17.241Z,5.50
2018-04-25T18:33:43.659Z,3.67
2018-04-25T18:36:09.411Z,2.93
2018-04-25T18:38:35.236Z,3.57
2018-04-25T18:41:00.933Z,3.37
2018-04-25T18:43:26.677Z,5.33
2018-04-25T18:45:52.404Z,3.93
2018-04-25T18:48:18.146Z,4.10
2018-04-25T18:50:43.880Z,3.17
2018-04-25T18:53:09.626Z,27.37
2018-04-25T18:55:35.380Z,13.20
2018-04-25T18:58:01.146Z,3.77
2018-04-25T19:00:26.892Z,3.93
2018-04-25T19:02:52.629Z,4.73
2018-04-25T19:05:18.618Z,4.33
2018-04-25T19:07:44.376Z,5.20
2018-04-25T19:10:10.122Z,4.27
2018-04-25T19:12:35.868Z,4.10
2018-04-25T19:15:01.605Z,5.47
2018-04-25T19:17:27.369Z,4.77
2018-04-25T19:19:53.093Z,6.77
2018-04-25T19:22:18.842Z,6.07
2018-04-25T19:24:44.593Z,6.07
2018-04-25T19:27:10.312Z,6.60
2018-04-25T19:29:36.860Z,4.70
2018-04-25T19:32:02.598Z,7.07
2018-04-25T19:34:28.340Z,5.37
2018-04-25T19:36:54.080Z,4.60
2018-04-25T19:39:19.824Z,4.90
2018-04-25T19:41:45.552Z,3.70
2018-04-25T19:44:11.295Z,5.33
2018-04-25T19:46:37.081Z,6.33
2018-04-25T19:49:02.773Z,6.50
2018-04-25T19:51:28.505Z,6.73
2018-04-25T19:53:54.261Z,5.63
2018-04-25T19:56:20.016Z,8.47
2018-04-25T19:58:45.776Z,6.90
2018-04-25T20:01:11.508Z,6.37
2018-04-25T20:03:37.248Z,7.17
2018-04-25T20:06:02.984Z,5.80
2018-04-25T20:08:28.802Z,4.73
2018-04-25T20:10:54.496Z,5.03
2018-04-25T20:13:20.244Z,8.13
2018-04-25T20:15:45.981Z,5.33
2018-04-25T20:18:11.723Z,4.77
2018-04-25T20:20:37.460Z,5.37
2018-04-25T20:23:03.211Z,4.40
2018-04-25T20:25:28.960Z,4.60
2018-04-25T20:27:54.688Z,4.77
2018-04-25T20:30:20.428Z,4.00
2018-04-25T20:32:46.155Z,6.03
2018-04-25T20:35:11.896Z,3.43
2018-04-25T20:37:37.656Z,3.73
2018-04-25T20:40:03.413Z,3.93
2018-04-25T20:42:29.152Z,5.57
2018-04-25T20:44:54.886Z,4.90
2018-04-25T20:47:20.640Z,4.63
2018-04-25T20:49:46.391Z,4.43
2018-04-25T20:52:12.138Z,3.37
2018-04-25T20:54:37.893Z,3.70
2018-04-25T20:57:03.622Z,3.87
2018-04-25T20:59:29.373Z,4.70
2018-04-25T21:01:55.114Z,4.10
2018-04-25T21:04:20.853Z,4.20
2018-04-25T21:06:46.585Z,5.73
2018-04-25T21:09:12.332Z,5.73
2018-04-25T21:11:38.085Z,4.03
2018-04-25T21:14:03.832Z,3.90
2018-04-25T21:16:29.572Z,4.57
2018-04-25T21:18:55.308Z,3.97
2018-04-25T21:21:21.049Z,4.40
2018-04-25T21:23:46.784Z,4.33
2018-04-25T21:26:12.513Z,5.73
2018-04-25T21:28:38.243Z,5.93
2018-04-25T21:31:03.988Z,5.40
2018-04-25T21:33:29.736Z,7.23
2018-04-25T21:35:55.484Z,5.53
2018-04-25T21:38:21.199Z,6.43
2018-04-25T21:40:46.941Z,8.73
2018-04-25T21:43:12.683Z,6.30
2018-04-25T21:45:38.684Z,6.90
2018-04-25T21:48:04.446Z,8.45
2018-04-25T21:50:30.205Z,7.37
2018-04-25T21:52:55.928Z,6.90
2018-04-25T21:55:21.684Z,7.27
2018-04-25T21:57:47.450Z,8.17
2018-04-25T22:00:13.200Z,8.73
2018-04-25T22:02:39.083Z,9.00
2018-04-25T22:05:05.551Z,9.77
2018-04-25T22:07:31.400Z,10.55
2018-04-25T22:09:57.157Z,9.87
2018-04-25T22:12:22.995Z,9.20
2018-04-25T22:14:48.736Z,8.83
2018-04-25T22:17:14.473Z,8.57
2018-04-25T22:19:40.284Z,10.47
2018-04-25T22:22:06.031Z,11.17
2018-04-25T22:24:31.793Z,9.73
2018-04-25T22:26:57.539Z,11.17
2018-04-25T22:29:23.284Z,11.27
2018-04-25T22:31:49.016Z,10.87
2018-04-25T22:34:14.814Z,12.33
2018-04-25T22:36:40.578Z,8.23
2018-04-25T22:39:06.325Z,9.47
2018-04-25T22:41:32.085Z,10.07
2018-04-25T22:43:57.824Z,11.40
2018-04-25T22:46:23.567Z,14.57
2018-04-25T22:48:49.316Z,13.10
2018-04-25T22:51:15.057Z,11.80
2018-04-25T22:53:40.799Z,14.20
2018-04-25T22:56:06.552Z,12.00
2018-04-25T22:58:32.359Z,8.50
2018-04-25T23:00:58.024Z,9.23
2018-04-25T23:03:23.753Z,14.70
2018-04-25T23:05:49.496Z,14.50
2018-04-25T23:08:15.234Z,12.20
2018-04-25T23:10:40.972Z,9.97
2018-04-25T23:13:06.712Z,11.37
2018-04-25T23:15:32.473Z,13.60
2018-04-25T23:17:58.218Z,12.20
2018-04-25T23:20:23.982Z,10.93
2018-04-25T23:22:49.734Z,10.77
2018-04-25T23:25:15.487Z,11.40
2018-04-25T23:27:41.212Z,12.77
2018-04-25T23:30:06.972Z,11.73
2018-04-25T23:32:32.711Z,18.10
2018-04-25T23:34:58.458Z,14.23
2018-04-25T23:37:24.191Z,17.10
2018-04-25T23:39:49.932Z,11.80
2018-04-25T23:42:15.652Z,15.67
2018-04-25T23:44:41.389Z,11.87
2018-04-25T23:47:07.131Z,11.67
2018-04-25T23:49:32.866Z,13.27
2018-04-25T23:51:58.612Z,14.90
2018-04-25T23:54:24.353Z,20.37
2018-04-25T23:56:50.108Z,15.47
2018-04-25T23:59:15.850Z,15.73
